南京市, Jiangsu

2015年7月04日 12時59分 (GMT +0800)
Lukou | | Change Station
CLOSE
Current Station
機場
Location: Nanjing,
海拔: 118 ft
附近的氣象站

海拔 118 ft 31.93 °N, 118.90 °E | Updated 59 minutes ago

Scattered Clouds
多雲時晴
81 °F
感覺像 83 °F
9
風 變化 風 來自 東南偏東

今日
高 -- | 低 -- °F
--% 降水機率
昨天
高 -- | 低 -- °F
Precip. -- 英寸
5:03 AM 7:13 PM
虧凸月, 94% visible
氣壓 29.80 英寸
能見度 4.3 英里
多雲 多雲時晴 2600 ft
高溫指數 83 °F
露點 66 °F
濕度 61%
降雨量 0.00 英寸
積雪深度 不適用。
紫外線 11 / 12
花粉 不適用。
空氣質素 不適用。
Flu Activity 不適用。
METAR ZSNJ 040400Z 12004MPS 090V170 7000 SCT026 27/19 Q1009 NOSIG

More Conditions Fewer Conditions

氣壓 29.80 英寸
能見度 4.3 英里
多雲 多雲時晴 2600 ft
高溫指數 83 °F
露點 66 °F
濕度 61%
降雨量 0.00 英寸
積雪深度 不適用。
紫外線 11 / 12
花粉 不適用。
空氣質素 不適用。
Flu Activity 不適用。
METAR ZSNJ 040400Z 12004MPS 090V170 7000 SCT026 27/19 Q1009 NOSIG

More Conditions Fewer Conditions

10-Day Weather Forecast

×

Almanac

天文

Jul. 04, 2015 昇起 降落
實際時間
民用曙暮光
航海曙暮光
天文學微明
月亮
可見光的長度
白晝時間
Tomorrow will be .
, % of the Moon is Illuminated

今天之最

國家高溫 國家低溫

Community

WunderPhotos

Upload Photos

1,834,931 照片已上傳!

WunderBlogs® & News

Nearby

空氣質素

  空氣質素 空氣質素指數 污染物
Not available.

積雪量

Station 深度 海拔

地震活動

城市 距離 時間和日期
顯示的最小幅度是2.5。

沿海水溫

地點 溫度

Stations

附近的氣象站

氣象站位置 溫度 風寒指數 露點 濕度 Precip. 海拔 最近更新時間 類型